Time;durP1;ratioP1;P1;durP2;ratioP2;P2;SDS_P1;SDS_P2;PMS_P1;PMS_P2;Temp;Humidity;BMP_temperature;BMP_pressure;BME280_temperature;BME280_humidity;BME280_pressure;Samples;Min_cycle;Max_cycle;Signal;HPM_P1;HPM_P2
2021/04/11 00:00:24;;;;;;;39.73;19.55;;;;;;;11.56;32.80;101663.11;1723231;81;21129;-78
2021/04/11 00:02:52;;;;;;;34.58;19.37;;;;;;;11.48;32.91;101669.14;1757763;81;21216;-76
2021/04/11 00:05:22;;;;;;;47.73;27.30;;;;;;;11.44;32.91;101666.36;1757916;81;21114;-76
2021/04/11 00:07:51;;;;;;;46.13;25.23;;;;;;;11.45;33.10;101668.58;1725188;81;21063;-77
2021/04/11 00:10:26;;;;;;;48.50;24.77;;;;;;;11.44;33.37;101670.38;1757776;81;21073;-77
2021/04/11 00:12:57;;;;;;;45.50;24.32;;;;;;;11.43;33.47;101667.35;1757613;81;21197;-76
2021/04/11 00:15:25;;;;;;;45.12;24.47;;;;;;;11.43;33.50;101672.72;1757686;81;21169;-77
2021/04/11 00:17:52;;;;;;;44.27;23.00;;;;;;;11.42;33.56;101671.02;1757726;81;21090;-76
2021/04/11 00:20:19;;;;;;;;;;;;;;;11.39;33.40;101668.11;1760079;81;21529;-76
2021/04/11 00:22:46;;;;;;;37.35;20.85;;;;;;;11.39;33.36;101672.12;1756197;81;20364;-74
2021/04/11 00:25:21;;;;;;;35.28;20.43;;;;;;;11.36;33.18;101671.08;1756229;81;21232;-76
2021/04/11 00:27:50;;;;;;;35.20;19.50;;;;;;;11.39;33.09;101673.97;1757388;81;21106;-76
2021/04/11 00:30:19;;;;;;;32.93;18.32;;;;;;;11.42;33.04;101675.05;1757707;81;21161;-75
2021/04/11 00:32:49;;;;;;;32.08;17.57;;;;;;;11.44;32.81;101671.72;1757630;81;21612;-76
2021/04/11 00:35:18;;;;;;;28.73;18.10;;;;;;;11.47;32.36;101672.81;1757647;81;21168;-76
2021/04/11 00:37:46;;;;;;;28.55;18.15;;;;;;;11.49;32.15;101682.93;1757551;81;21126;-76
2021/04/11 00:40:31;;;;;;;27.37;17.92;;;;;;;11.51;32.08;101678.77;1757544;81;21110;-75
2021/04/11 00:43:05;;;;;;;31.50;17.42;;;;;;;11.53;32.08;101681.65;1755697;81;21154;-76
2021/04/11 00:46:13;;;;;;;33.00;18.20;;;;;;;11.52;32.03;101681.30;1756978;81;21620;-76
2021/04/11 00:48:42;;;;;;;33.58;18.90;;;;;;;11.50;32.06;101684.63;1723848;81;21078;-78
2021/04/11 00:51:12;;;;;;;;;;;;;;;11.47;32.28;101680.86;1760344;81;21532;-77
2021/04/11 00:53:39;;;;;;;31.75;17.77;;;;;;;11.45;32.37;101681.99;1748608;81;20257;-76
2021/04/11 00:56:08;;;;;;;36.35;19.07;;;;;;;11.44;32.52;101685.14;1757610;81;21110;-76
2021/04/11 00:58:36;;;;;;;34.15;18.80;;;;;;;11.43;32.50;101684.30;1724482;81;21121;-76
2021/04/11 01:01:06;;;;;;;30.55;17.92;;;;;;;11.42;32.63;101683.95;1757635;81;21161;-77
2021/04/11 01:03:37;;;;;;;31.02;18.35;;;;;;;11.41;32.93;101688.95;1756771;81;21212;-75
2021/04/11 01:06:11;;;;;;;30.25;19.35;;;;;;;11.40;33.06;101694.47;1757546;81;21130;-76
2021/04/11 01:08:40;;;;;;;34.13;18.52;;;;;;;11.39;33.25;101690.91;1757556;81;21085;-75
2021/04/11 01:11:16;;;;;;;27.10;17.90;;;;;;;11.39;33.28;101694.08;1757469;81;21106;-75
2021/04/11 01:13:47;;;;;;;26.85;18.17;;;;;;;11.39;33.19;101694.93;1756865;81;21082;-75
2021/04/11 01:16:15;;;;;;;30.57;18.10;;;;;;;11.42;33.18;101706.75;1757256;81;21601;-75
2021/04/11 01:18:43;;;;;;;32.67;20.00;;;;;;;11.41;33.15;101702.38;1722773;81;21542;-76
2021/04/11 01:21:41;;;;;;;35.05;22.17;;;;;;;11.41;33.06;101703.72;1757793;81;21082;-75
2021/04/11 01:24:42;;;;;;;34.70;21.60;;;;;;;11.41;33.24;101707.73;1757615;81;21149;-76
2021/04/11 01:27:14;;;;;;;37.90;21.02;;;;;;;11.40;33.21;101710.56;1757803;81;21474;-75
2021/04/11 01:29:44;;;;;;;32.25;21.20;;;;;;;11.38;32.63;101713.36;1757525;81;21204;-76
2021/04/11 01:32:13;;;;;;;37.90;21.62;;;;;;;11.38;32.28;101707.99;1757506;81;21133;-73
2021/04/11 01:34:41;;;;;;;39.00;23.22;;;;;;;11.41;32.57;101709.57;1724092;81;21486;-75
2021/04/11 01:37:12;;;;;;;37.85;24.12;;;;;;;11.42;32.88;101705.41;1757723;81;21558;-75
2021/04/11 01:39:42;;;;;;;44.58;24.30;;;;;;;11.41;33.13;101714.45;1723710;81;21081;-75
2021/04/11 01:42:10;;;;;;;68.78;38.83;;;;;;;11.38;33.38;101719.22;1701075;81;21089;-75
2021/04/11 01:44:42;;;;;;;47.10;26.75;;;;;;;11.35;33.48;101716.30;1757555;81;21137;-77
2021/04/11 01:47:12;;;;;;;41.92;24.25;;;;;;;11.33;33.51;101716.09;1724441;80;21061;-75
2021/04/11 01:49:44;;;;;;;41.75;24.67;;;;;;;11.32;33.58;101714.39;1757647;81;21082;-75
2021/04/11 01:52:23;;;;;;;48.45;27.13;;;;;;;11.30;33.72;101723.05;1723734;81;21089;-75
2021/04/11 01:54:53;;;;;;;49.95;29.07;;;;;;;11.27;33.78;101717.47;1749390;80;21087;-75
2021/04/11 01:57:30;;;;;;;57.38;31.40;;;;;;;11.25;33.84;101727.96;1788791;80;21086;-74
2021/04/11 02:00:19;;;;;;;57.70;34.05;;;;;;;11.24;33.70;101728.95;1788387;80;21145;-74
2021/04/11 02:02:57;;;;;;;69.50;38.58;;;;;;;11.22;33.67;101732.23;1788685;80;21105;-75
2021/04/11 02:05:25;;;;;;;60.78;35.73;;;;;;;11.20;33.91;101727.02;1788846;80;21217;-74
2021/04/11 02:07:55;;;;;;;63.08;35.83;;;;;;;11.18;34.02;101728.50;1788761;80;21158;-74
2021/04/11 02:10:28;;;;;;;77.37;41.25;;;;;;;11.15;34.09;101734.11;1788297;80;21177;-74
2021/04/11 02:13:07;;;;;;;82.47;44.83;;;;;;;11.12;34.20;101734.36;1757272;80;21580;-74
2021/04/11 02:15:45;;;;;;;81.40;46.53;;;;;;;11.11;34.04;101738.03;1788942;80;21165;-74
2021/04/11 02:18:14;;;;;;;108.17;55.30;;;;;;;11.08;34.05;101743.67;1786710;80;21058;-76
2021/04/11 02:20:42;;;;;;;116.65;58.45;;;;;;;11.04;33.74;101742.72;1788866;80;21069;-75
2021/04/11 02:23:12;;;;;;;98.82;52.13;;;;;;;10.98;33.44;101746.75;1788904;80;21540;-75
2021/04/11 02:25:45;;;;;;;101.10;52.38;;;;;;;10.96;33.59;101756.77;1789075;80;21493;-76
2021/04/11 02:28:13;;;;;;;97.05;52.43;;;;;;;10.90;33.70;101749.22;1788949;80;21066;-75
2021/04/11 02:30:49;;;;;;;107.65;60.33;;;;;;;10.90;34.30;101751.90;1788842;80;21092;-75
2021/04/11 02:33:19;;;;;;;134.72;81.92;;;;;;;10.89;34.12;101747.03;1789212;80;21580;-74
2021/04/11 02:35:47;;;;;;;116.55;69.17;;;;;;;10.89;34.23;101759.09;1788837;80;21125;-75
2021/04/11 02:38:17;;;;;;;109.85;55.43;;;;;;;10.87;34.33;101755.70;1754090;80;21117;-75
2021/04/11 02:40:47;;;;;;;99.92;52.13;;;;;;;10.84;34.65;101759.13;1754180;80;21164;-74
2021/04/11 02:43:18;;;;;;;81.87;45.90;;;;;;;10.79;34.65;101755.98;1788437;80;21145;-76
2021/04/11 02:45:46;;;;;;;88.92;48.15;;;;;;;10.72;34.64;101761.47;1788785;80;21152;-76
2021/04/11 02:48:15;;;;;;;85.92;43.83;;;;;;;10.65;34.51;101755.78;1731169;80;21152;-76
2021/04/11 02:50:45;;;;;;;86.55;50.58;;;;;;;10.61;34.31;101763.22;1763079;80;21137;-76
2021/04/11 02:56:02;;;;;;;92.53;51.20;;;;;;;10.52;34.64;101765.31;1778280;80;21602;-76
2021/04/11 02:58:30;;;;;;;81.37;48.20;;;;;;;10.48;35.02;101771.90;1779496;80;21084;-74
2021/04/11 03:01:09;;;;;;;77.40;44.55;;;;;;;10.41;35.08;101765.36;1780267;79;21559;-73
2021/04/11 03:03:37;;;;;;;78.70;42.08;;;;;;;10.35;35.08;101770.70;1772251;80;21146;-75
2021/04/11 03:06:10;;;;;;;72.75;37.13;;;;;;;10.33;35.06;101775.84;1740132;81;21177;-74
2021/04/11 03:08:38;;;;;;;71.70;38.38;;;;;;;10.31;35.11;101777.77;1765385;80;21082;-74
2021/04/11 03:11:33;;;;;;;70.92;36.05;;;;;;;10.31;35.04;101784.47;1772753;79;21097;-74
2021/04/11 03:14:05;;;;;;;78.57;40.70;;;;;;;10.29;35.08;101781.08;1771762;80;21221;-74
2021/04/11 03:16:36;;;;;;;63.83;35.33;;;;;;;10.27;35.09;101777.19;1772005;80;21110;-73
2021/04/11 03:19:04;;;;;;;61.30;33.75;;;;;;;10.28;35.54;101785.58;1772688;80;21174;-75
2021/04/11 03:21:34;;;;;;;58.00;33.28;;;;;;;10.30;35.91;101785.45;1772573;81;21130;-75
2021/04/11 03:24:04;;;;;;;59.50;33.15;;;;;;;10.31;36.06;101788.48;1772341;80;21692;-76
2021/04/11 03:26:42;;;;;;;59.67;32.85;;;;;;;10.28;35.89;101781.56;1764304;80;21185;-75
2021/04/11 03:29:20;;;;;;;60.85;33.73;;;;;;;10.27;35.80;101789.73;1772393;80;21178;-75
2021/04/11 03:31:56;;;;;;;76.43;37.40;;;;;;;10.21;35.69;101792.85;1767596;81;21058;-75
2021/04/11 03:34:25;;;;;;;70.50;36.28;;;;;;;10.11;35.74;101786.89;1772716;80;21117;-76
2021/04/11 03:36:52;;;;;;;66.17;36.23;;;;;;;10.04;35.98;101792.39;1772291;80;21165;-74
2021/04/11 03:39:20;;;;;;;63.38;34.98;;;;;;;10.00;36.19;101793.61;1771917;80;21079;-75
2021/04/11 03:41:49;;;;;;;61.00;34.65;;;;;;;9.98;36.54;101796.88;1772668;81;21046;-74
2021/04/11 03:44:22;;;;;;;69.42;35.55;;;;;;;9.97;36.69;101803.20;1772635;81;21098;-75
2021/04/11 03:47:21;;;;;;;71.50;38.88;;;;;;;9.95;36.62;101803.83;1772788;80;21620;-74
2021/04/11 03:50:08;;;;;;;63.33;34.40;;;;;;;9.93;36.62;101811.11;1772801;81;21699;-74
2021/04/11 03:53:05;;;;;;;67.25;35.38;;;;;;;9.92;37.01;101809.41;1772299;80;21094;-74
2021/04/11 03:55:37;;;;;;;63.78;34.92;;;;;;;9.95;37.12;101815.88;1765483;80;21141;-76
2021/04/11 03:58:25;;;;;;;68.07;37.00;;;;;;;10.03;36.81;101824.62;1772694;81;21106;-75
2021/04/11 04:00:59;;;;;;;;;;;;;;;10.10;36.30;101825.36;1741355;81;21129;-75
2021/04/11 04:03:30;;;;;;;62.43;33.65;;;;;;;10.19;36.08;101822.44;1743982;81;20570;-74
2021/04/11 04:06:29;;;;;;;60.15;32.63;;;;;;;10.24;35.97;101824.75;1771326;80;21228;-75
2021/04/11 04:08:57;;;;;;;64.03;34.73;;;;;;;10.30;36.17;101826.95;1771410;80;21181;-75
2021/04/11 04:12:11;;;;;;;67.20;34.55;;;;;;;10.37;35.95;101824.17;1771555;79;21617;-74
2021/04/11 04:14:56;;;;;;;66.47;38.40;;;;;;;10.45;35.92;101821.73;1766018;78;21199;-74
2021/04/11 04:17:58;;;;;;;59.05;32.45;;;;;;;10.52;36.04;101817.56;1712069;83;21432;-74
2021/04/11 04:20:50;;;;;;;51.30;26.25;;;;;;;10.56;35.90;101819.02;1711921;83;21155;-74
2021/04/11 04:23:57;;;;;;;50.03;25.85;;;;;;;10.60;35.54;101828.51;1711457;82;21634;-74
2021/04/11 04:26:49;;;;;;;41.37;24.65;;;;;;;10.62;35.38;101823.86;1711930;83;21221;-74
2021/04/11 04:29:32;;;;;;;48.63;27.62;;;;;;;10.61;35.03;101832.03;1712407;83;21625;-74
2021/04/11 04:32:57;;;;;;;38.28;24.12;;;;;;;10.62;34.78;101833.24;1712466;83;21145;-74
2021/04/11 04:35:45;;;;;;;44.98;21.95;;;;;;;10.68;34.74;101831.06;1711321;83;21198;-72
2021/04/11 04:38:51;;;;;;;41.73;21.23;;;;;;;10.73;34.41;101834.22;1711924;82;21220;-75
2021/04/11 04:41:47;;;;;;;39.53;21.20;;;;;;;10.78;34.16;101832.01;1778187;80;21691;-75
2021/04/11 04:44:49;;;;;;;34.50;21.70;;;;;;;10.85;33.96;101839.40;1779178;80;21156;-74
2021/04/11 04:47:43;;;;;;;39.42;22.67;;;;;;;10.92;33.90;101845.97;1776900;80;21088;-75
2021/04/11 04:50:18;;;;;;;44.40;24.82;;;;;;;11.00;34.06;101837.30;1779175;80;21085;-75
2021/04/11 04:53:27;;;;;;;53.75;26.00;;;;;;;11.08;33.98;101849.59;1767926;80;27375;-75
2021/04/11 04:56:04;;;;;;;39.92;23.57;;;;;;;11.20;33.52;101850.87;1817439;79;22728;-75
2021/04/11 04:58:41;;;;;;;41.37;23.83;;;;;;;11.21;33.39;101854.76;1782946;80;21096;-74
2021/04/11 05:01:28;;;;;;;44.67;26.10;;;;;;;11.24;33.42;101858.53;1815472;79;21500;-76
2021/04/11 05:04:01;;;;;;;;;;;;;;;11.30;33.11;101857.16;1816483;79;21121;-75
2021/04/11 05:06:35;;;;;;;40.83;22.37;;;;;;;11.34;33.16;101858.61;1814929;79;20207;-75
2021/04/11 05:09:19;;;;;;;42.58;23.65;;;;;;;11.38;33.18;101865.42;1813968;79;21192;-75
2021/04/11 05:12:00;;;;;;;39.42;23.25;;;;;;;11.52;33.03;101873.16;1782703;80;21202;-76
2021/04/11 05:14:32;;;;;;;39.83;24.55;;;;;;;11.66;33.04;101877.36;1761077;80;21240;-74
2021/04/11 05:17:18;;;;;;;38.63;23.42;;;;;;;11.76;32.85;101882.78;1781728;80;21120;-77
2021/04/11 05:20:01;;;;;;;43.30;25.75;;;;;;;11.80;32.49;101878.36;1757098;80;21604;-73
2021/04/11 05:22:45;;;;;;;44.45;25.48;;;;;;;11.85;32.62;101875.31;1779781;80;21649;-74
2021/04/11 05:25:45;;;;;;;45.10;26.12;;;;;;;11.90;32.59;101875.80;1784757;80;21145;-75
2021/04/11 05:28:21;;;;;;;51.73;27.02;;;;;;;11.94;32.58;101879.89;1753211;80;21151;-74
2021/04/11 05:31:06;;;;;;;43.20;25.88;;;;;;;11.98;32.56;101878.65;1784921;80;21177;-74
2021/04/11 05:33:36;;;;;;;41.75;25.97;;;;;;;12.05;32.23;101876.30;1780869;80;21186;-73
2021/04/11 05:36:41;;;;;;;44.35;26.82;;;;;;;12.16;32.37;101873.02;1784259;80;21200;-77
2021/04/11 05:39:45;;;;;;;44.15;26.42;;;;;;;12.31;32.28;101871.31;1781501;80;21626;-75
2021/04/11 05:42:32;;;;;;;49.03;25.90;;;;;;;12.47;31.75;101870.33;1784820;80;21433;-75
2021/04/11 05:45:30;;;;;;;45.15;26.17;;;;;;;12.60;31.48;101870.95;1781688;80;21182;-74
2021/04/11 05:48:18;;;;;;;50.83;27.22;;;;;;;12.69;31.24;101872.81;1784178;80;21209;-73
2021/04/11 05:50:53;;;;;;;;;;;;;;;12.81;31.54;101874.91;1783243;80;21197;-76
2021/04/11 05:53:27;;;;;;;48.98;27.58;;;;;;;12.94;31.46;101881.34;1781414;80;20524;-75
2021/04/11 05:56:01;;;;;;;57.40;28.60;;;;;;;13.04;31.28;101880.05;1784976;80;21205;-76
2021/04/11 05:58:32;;;;;;;48.73;29.12;;;;;;;13.14;31.26;101888.47;1781631;80;21207;-75
2021/04/11 06:01:04;;;;;;;50.35;29.15;;;;;;;13.27;31.22;101890.08;1758159;80;21145;-76
2021/04/11 06:03:35;;;;;;;48.95;29.30;;;;;;;13.38;31.11;101896.66;1784647;80;21155;-74
2021/04/11 06:06:28;;;;;;;57.00;28.10;;;;;;;13.52;30.87;101899.42;1785833;80;21584;-74
2021/04/11 06:09:02;;;;;;;44.95;27.15;;;;;;;13.68;30.97;101897.86;1752846;80;21198;-76
2021/04/11 06:12:09;;;;;;;46.23;26.65;;;;;;;13.85;30.72;101896.28;1771032;80;21201;-77
2021/04/11 06:14:58;;;;;;;39.53;24.50;;;;;;;14.03;30.30;101897.70;1812274;79;21204;-75
2021/04/11 06:17:26;;;;;;;42.60;23.73;;;;;;;14.24;29.40;101892.62;1813056;78;21578;-75
2021/04/11 06:19:54;;;;;;;39.65;25.17;;;;;;;14.43;28.93;101892.55;1794679;78;21192;-75
2021/04/11 06:22:30;;;;;;;36.13;23.05;;;;;;;14.64;28.51;101892.36;1778457;80;21197;-76
2021/04/11 06:25:25;;;;;;;39.33;22.10;;;;;;;14.84;27.92;101886.34;1783703;80;21201;-74
2021/04/11 06:28:16;;;;;;;39.23;19.77;;;;;;;15.10;27.47;101883.77;1783933;80;21480;-75
2021/04/11 06:31:03;;;;;;;34.83;20.12;;;;;;;15.43;26.91;101882.22;1773555;80;21286;-75
2021/04/11 06:33:39;;;;;;;28.20;17.15;;;;;;;15.78;26.52;101878.67;1811444;79;22132;-74
2021/04/11 06:36:12;;;;;;;31.05;17.82;;;;;;;16.16;26.33;101875.19;1810802;79;21201;-74
2021/04/11 06:39:01;;;;;;;18.98;11.10;;;;;;;16.52;25.79;101877.74;1784064;80;21133;-75
2021/04/11 06:41:58;;;;;;;12.63;7.35;;;;;;;16.84;25.07;101866.22;1738899;80;21395;-75
2021/04/11 06:45:04;;;;;;;14.75;6.78;;;;;;;17.18;24.21;101862.92;1798216;78;21105;-75
2021/04/11 06:47:58;;;;;;;10.80;6.17;;;;;;;17.55;23.67;101868.36;1747106;82;21110;-75
2021/04/11 06:50:54;;;;;;;14.23;5.83;;;;;;;17.90;22.86;101861.77;1756965;80;21482;-76
2021/04/11 06:54:03;;;;;;;12.43;6.85;;;;;;;18.18;22.59;101866.78;1761003;81;21196;-75
2021/04/11 06:57:01;;;;;;;14.85;7.87;;;;;;;18.46;21.96;101863.13;1761077;81;21589;-74
2021/04/11 06:59:37;;;;;;;10.50;6.28;;;;;;;18.66;21.28;101867.09;1760816;80;21173;-75
2021/04/11 07:02:47;;;;;;;8.83;4.37;;;;;;;18.80;20.82;101871.47;1762005;80;21141;-77
2021/04/11 07:05:54;;;;;;;9.38;4.67;;;;;;;18.92;20.52;101871.41;1763279;81;21557;-77
2021/04/11 07:08:51;;;;;;;11.03;6.22;;;;;;;19.08;20.11;101868.61;1762453;80;21174;-75
2021/04/11 07:11:53;;;;;;;11.97;6.40;;;;;;;19.24;20.03;101872.55;1761689;81;21184;-75
2021/04/11 07:14:27;;;;;;;11.05;5.97;;;;;;;19.36;19.81;101877.58;1742020;81;21750;-75
2021/04/11 07:17:16;;;;;;;5.72;4.80;;;;;;;19.47;19.73;101871.70;1760558;81;21201;-73
2021/04/11 07:20:04;;;;;;;7.40;5.47;;;;;;;19.58;19.60;101869.93;1761277;81;21181;-76
2021/04/11 07:22:54;;;;;;;11.20;6.42;;;;;;;19.73;19.33;101868.11;1761927;81;21129;-75
2021/04/11 07:25:50;;;;;;;10.25;5.90;;;;;;;19.88;19.01;101870.02;1760555;81;21177;-74
2021/04/11 07:28:38;;;;;;;16.57;7.60;;;;;;;20.01;19.05;101874.30;1760500;81;21225;-76
2021/04/11 07:31:29;;;;;;;16.85;8.80;;;;;;;20.18;18.76;101877.70;1742544;81;21212;-74
2021/04/11 07:34:29;;;;;;;18.07;8.55;;;;;;;20.26;19.04;101875.73;1767396;79;21704;-75
2021/04/11 07:37:08;;;;;;;15.98;8.70;;;;;;;20.37;19.09;101879.02;1811950;78;21229;-75
2021/04/11 07:40:06;;;;;;;18.17;9.05;;;;;;;20.44;19.02;101876.72;1812192;78;21177;-75
2021/04/11 07:42:58;;;;;;;15.95;8.63;;;;;;;20.50;19.17;101876.50;1811686;79;21188;-75
2021/04/11 07:45:37;;;;;;;18.27;10.88;;;;;;;20.53;18.86;101873.41;1811306;79;21416;-76
2021/04/11 07:48:32;;;;;;;20.35;10.85;;;;;;;20.61;19.15;101880.09;1811062;78;21185;-76
2021/04/11 07:51:19;;;;;;;15.65;9.45;;;;;;;20.67;19.46;101875.79;1811890;79;21672;-77
2021/04/11 07:54:07;;;;;;;17.53;9.83;;;;;;;20.75;19.19;101869.69;1786153;79;21165;-76
2021/04/11 07:56:51;;;;;;;;;;;;;;;20.87;19.10;101873.30;1770704;80;21200;-74
2021/04/11 07:59:50;;;;;;;13.10;7.55;;;;;;;20.95;18.58;101865.02;1784887;80;20302;-74
2021/04/11 08:02:55;;;;;;;12.20;7.53;;;;;;;21.03;18.29;101873.08;1761779;80;21166;-76
2021/04/11 08:05:50;;;;;;;15.60;8.55;;;;;;;21.14;17.89;101865.74;1758822;80;21612;-75
2021/04/11 08:08:44;;;;;;;10.60;7.37;;;;;;;21.23;17.64;101863.73;1657640;85;21256;-75
2021/04/11 08:11:43;;;;;;;10.60;7.90;;;;;;;21.32;17.38;101860.41;1680635;85;22122;-75
2021/04/11 08:14:43;;;;;;;9.10;7.60;;;;;;;21.39;17.49;101864.02;1757041;80;22125;-76
2021/04/11 08:17:14;;;;;;;9.10;7.00;;;;;;;;;;1778281;80;21186;-75
2021/04/11 08:20:06;;;;;;;10.80;7.47;;;;;;;21.53;17.34;101861.23;1781413;80;21182;-75
2021/04/11 08:23:18;;;;;;;8.78;6.70;;;;;;;21.63;17.11;101858.17;1779826;80;21195;-76
2021/04/11 08:26:25;;;;;;;9.23;6.83;;;;;;;21.77;16.95;101855.87;1774031;80;21584;-75
2021/04/11 08:29:13;;;;;;;9.88;7.33;;;;;;;21.88;16.75;101845.45;1747987;82;21118;-74
2021/04/11 08:32:38;;;;;;;8.73;6.80;;;;;;;21.97;16.53;101845.61;1738765;82;21676;-78
2021/04/11 08:35:36;;;;;;;9.95;6.47;;;;;;;22.01;16.85;101840.92;1763983;80;21169;-74
2021/04/11 08:38:49;;;;;;;8.53;6.90;;;;;;;22.10;16.74;101844.33;1749414;80;21137;-77
2021/04/11 08:41:43;;;;;;;10.78;6.67;;;;;;;22.17;16.70;101838.97;1778809;80;21205;-75
2021/04/11 08:44:41;;;;;;;10.40;7.35;;;;;;;22.22;16.49;101841.93;1751830;80;21196;-75
2021/04/11 08:47:30;;;;;;;9.65;6.83;;;;;;;22.20;16.58;101839.38;1755943;80;21185;-76
2021/04/11 08:50:03;;;;;;;8.98;7.35;;;;;;;22.16;16.75;101829.91;1804176;79;21197;-75
2021/04/11 08:52:48;;;;;;;8.65;7.30;;;;;;;22.11;16.77;101832.37;1812102;79;21161;-76
2021/04/11 08:55:30;;;;;;;11.10;7.92;;;;;;;22.02;16.85;101828.11;1764492;80;21276;-76
2021/04/11 08:58:30;;;;;;;12.25;8.13;;;;;;;21.96;17.50;101826.20;1767431;80;21193;-75
2021/04/11 09:01:35;;;;;;;10.00;7.60;;;;;;;21.94;17.26;101832.39;1752719;79;21196;-75
2021/04/11 09:04:38;;;;;;;11.22;8.65;;;;;;;21.92;17.45;101819.45;1799694;79;21664;-75
2021/04/11 09:07:13;;;;;;;12.05;8.43;;;;;;;21.81;17.27;101832.30;1780934;79;21363;-77
2021/04/11 09:10:17;;;;;;;12.33;8.35;;;;;;;21.66;17.41;101822.83;1812184;79;21608;-77
2021/04/11 09:13:32;;;;;;;10.93;8.65;;;;;;;21.57;17.50;101823.48;1812451;79;21491;-74
2021/04/11 09:16:33;;;;;;;10.30;7.62;;;;;;;21.44;17.74;101825.61;1778786;80;21659;-75
2021/04/11 09:19:24;;;;;;;11.90;7.45;;;;;;;21.28;17.57;101819.87;1704905;80;21619;-75
2021/04/11 09:21:59;;;;;;;9.48;7.05;;;;;;;21.10;17.54;101818.12;1741076;81;21202;-74
2021/04/11 09:24:39;;;;;;;8.48;6.53;;;;;;;20.94;17.44;101811.06;1760352;80;21719;-75
2021/04/11 09:27:36;;;;;;;10.10;6.90;;;;;;;20.80;17.62;101808.37;1742451;81;21557;-75
2021/04/11 09:30:31;;;;;;;9.13;7.75;;;;;;;20.67;17.73;101811.81;1759228;81;21712;-75
2021/04/11 09:33:48;;;;;;;11.10;7.70;;;;;;;20.53;17.87;101797.20;1785887;80;21637;-75
2021/04/11 09:36:34;;;;;;;10.98;6.90;;;;;;;20.27;18.38;101788.14;1777217;80;21140;-75
2021/04/11 09:39:28;;;;;;;8.25;7.35;;;;;;;20.13;18.46;101789.85;1769522;80;21201;-73
2021/04/11 09:42:13;;;;;;;13.30;6.83;;;;;;;20.01;18.46;101787.27;1729834;81;21237;-74
2021/04/11 09:45:01;;;;;;;9.73;6.92;;;;;;;19.83;18.57;101781.36;1761482;81;21671;-75
2021/04/11 09:47:49;;;;;;;;;;;;;;;19.74;18.50;101784.16;1763992;81;21710;-75
2021/04/11 09:50:49;;;;;;;13.13;7.05;;;;;;;19.68;19.03;101774.04;1775215;80;27253;-77
2021/04/11 09:53:45;;;;;;;9.25;7.37;;;;;;;19.64;19.25;101767.28;1792800;80;21169;-74
2021/04/11 09:56:32;;;;;;;8.83;7.05;;;;;;;19.64;19.17;101772.72;1778092;80;21164;-77
2021/04/11 10:02:41;;;;;;;11.68;7.33;;;;;;;19.57;19.10;101782.59;1741920;82;21747;-74
2021/04/11 10:05:17;;;;;;;8.48;6.87;;;;;;;19.44;19.22;101781.03;1741004;82;21193;-74
2021/04/11 10:08:14;;;;;;;9.08;6.97;;;;;;;19.37;19.22;101774.14;1741875;82;21197;-75
2021/04/11 10:10:55;;;;;;;7.58;6.65;;;;;;;19.32;18.96;101765.70;1738847;82;21737;-74
2021/04/11 10:13:54;;;;;;;9.98;6.92;;;;;;;19.26;18.96;101770.00;1779826;80;21411;-74
2021/04/11 10:16:59;;;;;;;;;;;;;;;19.21;18.98;101766.99;1782956;80;21533;-74
2021/04/11 10:19:39;;;;;;;9.18;6.33;;;;;;;19.15;18.90;101764.98;1780279;80;20309;-75
2021/04/11 10:22:50;;;;;;;9.48;7.37;;;;;;;19.07;18.92;101762.33;1782618;80;21170;-77
2021/04/11 10:25:40;;;;;;;9.38;7.00;;;;;;;19.00;18.96;101773.09;1784694;80;21216;-75
2021/04/11 10:28:34;;;;;;;10.05;7.22;;;;;;;18.91;19.12;101769.27;1782537;80;21199;-77
2021/04/11 10:31:24;;;;;;;10.35;7.15;;;;;;;18.89;19.35;101766.71;1723244;82;21702;-76
2021/04/11 10:34:14;;;;;;;7.85;6.58;;;;;;;18.89;19.26;101769.94;1727009;82;21184;-76
2021/04/11 10:36:53;;;;;;;8.88;7.12;;;;;;;18.87;19.08;101769.30;1703196;83;21740;-74
2021/04/11 10:39:32;;;;;;;11.40;6.83;;;;;;;18.80;19.07;101761.01;1781139;80;21116;-74
2021/04/11 10:42:34;;;;;;;11.03;7.05;;;;;;;18.77;19.17;101756.48;1779839;80;21121;-77
2021/04/11 10:45:28;;;;;;;10.50;6.80;;;;;;;18.71;19.29;101749.88;1762417;80;21123;-75
2021/04/11 10:48:45;;;;;;;9.88;7.22;;;;;;;18.71;19.66;101752.59;1775437;80;21124;-75
2021/04/11 10:51:41;;;;;;;9.25;7.37;;;;;;;18.74;19.69;101758.52;1757692;80;21097;-75
2021/04/11 10:54:23;;;;;;;11.40;7.17;;;;;;;18.74;19.69;101758.52;1784065;80;22207;-76
2021/04/11 10:57:34;;;;;;;12.15;7.28;;;;;;;18.74;19.50;101760.38;1783455;80;21157;-76
2021/04/11 11:00:24;;;;;;;11.73;6.97;;;;;;;18.77;19.45;101757.84;1749217;82;21249;-75
2021/04/11 11:03:36;;;;;;;9.63;6.78;;;;;;;18.80;19.53;101756.09;1749170;82;21193;-75
2021/04/11 11:06:32;;;;;;;9.75;6.92;;;;;;;18.83;19.41;101751.67;1749616;82;21128;-76
2021/04/11 11:09:23;;;;;;;10.05;7.90;;;;;;;18.83;19.49;101747.09;1772470;80;21117;-76
2021/04/11 11:12:34;;;;;;;11.12;7.08;;;;;;;18.83;19.51;101739.45;1766679;79;21125;-75
2021/04/11 11:15:21;;;;;;;10.68;7.15;;;;;;;18.84;19.37;101733.00;1787214;80;21656;-73
2021/04/11 11:18:23;;;;;;;10.75;7.87;;;;;;;18.84;19.35;101734.35;1786493;80;21108;-76
2021/04/11 11:21:10;;;;;;;10.00;7.78;;;;;;;18.79;19.32;101738.13;1787284;80;21120;-76
2021/04/11 11:24:01;;;;;;;10.50;6.85;;;;;;;18.73;19.19;101735.63;1788472;80;21089;-76
2021/04/11 11:27:03;;;;;;;10.98;7.47;;;;;;;18.70;19.32;101727.33;1757617;80;21149;-74
2021/04/11 11:30:11;;;;;;;14.13;7.65;;;;;;;18.68;19.28;101723.93;1782006;80;21664;-77
2021/04/11 11:33:04;;;;;;;11.08;8.23;;;;;;;18.68;19.66;101721.22;1741767;82;21176;-75
2021/04/11 11:36:06;;;;;;;12.30;7.85;;;;;;;18.68;19.73;101722.57;1703584;83;21257;-74
2021/04/11 11:38:47;;;;;;;10.32;7.75;;;;;;;18.72;19.62;101721.22;1702684;83;21217;-75
2021/04/11 11:41:28;;;;;;;12.47;7.30;;;;;;;18.74;19.39;101711.53;1704858;83;21205;-77
2021/04/11 11:44:14;;;;;;;10.88;7.95;;;;;;;18.74;19.24;101702.03;1711386;83;21228;-75
2021/04/11 11:47:06;;;;;;;10.30;7.65;;;;;;;18.73;19.28;101701.19;1678725;85;21245;-74
2021/04/11 11:50:11;;;;;;;11.03;7.17;;;;;;;18.73;19.30;101693.05;1685545;84;21113;-74
2021/04/11 11:52:59;;;;;;;11.70;8.08;;;;;;;18.71;19.08;101688.81;1750818;81;21125;-76
2021/04/11 11:55:38;;;;;;;12.15;7.37;;;;;;;18.69;19.04;101686.80;1750972;81;21148;-76
2021/04/11 11:58:18;;;;;;;10.65;7.58;;;;;;;18.65;19.19;101678.66;1740366;80;21141;-75
2021/04/11 12:00:59;;;;;;;11.03;8.10;;;;;;;18.62;19.47;101668.16;1775493;80;21193;-75
2021/04/11 12:03:36;;;;;;;13.08;8.50;;;;;;;18.65;19.36;101670.52;1728644;80;21104;-75
2021/04/11 12:06:27;;;;;;;8.48;7.00;;;;;;;18.64;19.45;101672.39;1764005;80;21644;-74
2021/04/11 12:09:09;;;;;;;11.35;7.78;;;;;;;18.63;19.31;101668.00;1769539;80;21156;-75
2021/04/11 12:11:54;;;;;;;9.35;7.25;;;;;;;18.61;19.28;101664.60;1780255;80;21172;-74
2021/04/11 12:14:36;;;;;;;11.28;7.83;;;;;;;18.59;19.30;101660.40;1711178;83;21506;-77
2021/04/11 12:17:25;;;;;;;11.30;7.53;;;;;;;18.57;19.31;101652.42;1681130;85;21581;-75
2021/04/11 12:20:11;;;;;;;12.10;7.53;;;;;;;18.56;19.24;101653.45;1699053;84;21160;-74
2021/04/11 12:23:14;;;;;;;10.93;7.30;;;;;;;18.55;19.12;101649.05;1690685;82;21149;-76
2021/04/11 12:25:41;;;;;;;13.40;8.05;;;;;;;18.54;19.27;101641.11;1677874;82;21135;-77
2021/04/11 12:28:25;;;;;;;10.70;6.75;;;;;;;18.52;19.23;101645.34;1678005;83;21208;-76
2021/04/11 12:31:31;;;;;;;8.95;7.33;;;;;;;18.55;19.32;101641.43;1836116;77;22755;-76
2021/04/11 12:34:08;;;;;;;11.85;7.92;;;;;;;18.48;19.12;101641.30;1827283;77;21101;-77
2021/04/11 12:36:43;;;;;;;10.25;6.97;;;;;;;18.45;19.10;101636.25;1832490;76;21014;-75
2021/04/11 12:39:29;;;;;;;7.90;6.60;;;;;;;18.45;19.16;101637.61;1827849;77;21192;-75
2021/04/11 12:42:30;;;;;;;11.57;7.33;;;;;;;18.45;19.13;101637.61;1833084;77;21168;-76